Time;durP1;ratioP1;P1;durP2;ratioP2;P2;SDS_P1;SDS_P2;PMS_P1;PMS_P2;Temp;Humidity;BMP_temperature;BMP_pressure;BME280_temperature;BME280_humidity;BME280_pressure;Samples;Min_cycle;Max_cycle;Signal;HPM_P1;HPM_P2
2022/12/30 00:00:58;;;;;;;9.70;9.20;;;9.30;99.90;;;;;;5040439;28;20428;-50
2022/12/30 00:03:24;;;;;;;10.93;10.20;;;9.20;99.90;;;;;;5041394;28;20430;-52
2022/12/30 00:05:50;;;;;;;10.00;9.40;;;9.10;99.90;;;;;;5041849;28;20416;-51
2022/12/30 00:10:59;;;;;;;9.60;9.10;;;9.00;99.90;;;;;;5040618;28;20189;-48
2022/12/30 00:33:08;;;;;;;9.70;9.10;;;9.20;99.90;;;;;;5041856;28;20481;-53
2022/12/30 00:35:39;;;;;;;9.30;8.90;;;9.20;99.90;;;;;;5040504;28;20420;-51
2022/12/30 00:38:05;;;;;;;9.67;9.10;;;9.20;99.90;;;;;;5040293;28;20446;-52
2022/12/30 00:40:31;;;;;;;9.63;9.13;;;9.20;99.90;;;;;;5041257;28;20861;-53
2022/12/30 00:43:09;;;;;;;9.20;8.70;;;9.20;99.90;;;;;;5039928;28;20566;-53
2022/12/30 00:45:40;;;;;;;9.50;9.10;;;9.10;99.90;;;;;;5040698;28;20439;-51
2022/12/30 00:56:19;;;;;;;9.47;8.87;;;9.30;99.90;;;;;;5041105;28;20820;-53
2022/12/30 00:58:44;;;;;;;8.67;8.27;;;9.40;99.90;;;;;;5041098;28;20443;-51
2022/12/30 01:01:10;;;;;;;8.60;8.20;;;9.50;99.90;;;;;;5040343;28;20190;-50
2022/12/30 01:03:35;;;;;;;9.10;8.70;;;9.40;99.90;;;;;;5040242;28;20289;-53
2022/12/30 01:06:06;;;;;;;9.20;8.70;;;9.40;99.90;;;;;;5040855;28;20271;-49
2022/12/30 01:08:32;;;;;;;9.33;8.83;;;9.40;99.90;;;;;;5040628;28;20186;-50
2022/12/30 01:10:58;;;;;;;9.20;8.70;;;9.40;99.90;;;;;;5040877;28;20468;-56
2022/12/30 01:13:23;;;;;;;8.87;8.37;;;9.40;99.90;;;;;;5039956;28;20898;-47
2022/12/30 01:15:49;;;;;;;8.90;8.40;;;9.40;99.90;;;;;;5040061;28;20192;-50
2022/12/30 01:18:14;;;;;;;9.70;9.10;;;9.40;99.90;;;;;;5040351;28;20204;-55
2022/12/30 01:20:40;;;;;;;8.90;8.30;;;9.30;99.90;;;;;;5040326;28;20590;-49
2022/12/30 01:23:06;;;;;;;9.83;9.10;;;9.30;99.90;;;;;;5040054;28;20193;-53
2022/12/30 01:25:31;;;;;;;10.17;9.37;;;9.30;99.90;;;;;;5039490;28;20186;-51
2022/12/30 01:27:57;;;;;;;9.33;8.83;;;9.20;99.90;;;;;;5040075;28;20202;-50
2022/12/30 01:30:22;;;;;;;9.60;9.10;;;9.10;99.90;;;;;;5039723;28;20186;-53
2022/12/30 01:32:48;;;;;;;9.37;8.93;;;9.10;99.90;;;;;;5039570;28;20235;-51
2022/12/30 01:35:14;;;;;;;9.77;9.20;;;9.10;99.90;;;;;;5039903;28;20219;-51
2022/12/30 01:37:39;;;;;;;9.87;9.30;;;9.10;99.90;;;;;;5038735;28;20239;-51
2022/12/30 01:40:06;;;;;;;9.73;9.13;;;9.00;99.90;;;;;;5040122;28;20192;-49
2022/12/30 01:42:37;;;;;;;9.90;9.10;;;9.00;99.90;;;;;;5039094;28;20194;-51
2022/12/30 01:45:27;;;;;;;10.13;9.43;;;9.00;99.90;;;;;;5039744;28;20502;-49
2022/12/30 01:47:55;;;;;;;9.80;9.30;;;8.90;99.90;;;;;;5039224;28;21180;-49
2022/12/30 01:50:21;;;;;;;9.50;8.90;;;8.90;99.90;;;;;;5039441;28;20543;-51
2022/12/30 01:52:55;;;;;;;9.40;8.80;;;8.90;99.90;;;;;;5039782;28;20430;-49
2022/12/30 01:55:26;;;;;;;10.07;9.57;;;8.90;99.90;;;;;;5038825;28;20188;-53
2022/12/30 01:57:55;;;;;;;9.50;9.00;;;9.00;99.90;;;;;;5038946;28;20493;-50
2022/12/30 02:00:20;;;;;;;8.70;8.30;;;8.90;99.90;;;;;;5039263;28;20546;-52
2022/12/30 02:02:47;;;;;;;8.93;8.37;;;8.90;99.90;;;;;;5039145;28;21191;-51
2022/12/30 02:05:15;;;;;;;8.97;8.47;;;8.90;99.90;;;;;;5040059;28;20185;-53
2022/12/30 02:07:57;;;;;;;9.00;8.50;;;8.90;99.90;;;;;;5038016;28;20518;-52
2022/12/30 02:10:23;;;;;;;9.30;8.70;;;8.90;99.90;;;;;;5039613;28;20436;-48
2022/12/30 02:12:49;;;;;;;9.20;8.70;;;8.80;99.90;;;;;;5038648;28;20440;-52
2022/12/30 02:15:14;;;;;;;9.97;9.30;;;8.80;99.90;;;;;;5039447;28;20421;-51
2022/12/30 02:18:02;;;;;;;9.00;8.50;;;8.80;99.90;;;;;;5038483;28;20235;-49
2022/12/30 02:20:52;;;;;;;9.10;8.60;;;8.70;99.90;;;;;;5038614;28;20280;-51
2022/12/30 02:23:45;;;;;;;9.50;8.90;;;8.70;99.90;;;;;;5039869;28;20436;-55
2022/12/30 02:27:05;;;;;;;9.30;8.80;;;8.70;99.90;;;;;;5038906;28;20504;-53
2022/12/30 02:29:39;;;;;;;10.47;9.70;;;8.70;99.90;;;;;;5014141;28;20453;-49
2022/12/30 02:32:28;;;;;;;9.40;8.87;;;8.60;99.90;;;;;;5039633;28;20450;-54
2022/12/30 02:35:25;;;;;;;9.37;8.87;;;8.60;99.90;;;;;;5038413;28;20436;-49
2022/12/30 02:37:53;;;;;;;9.93;9.23;;;8.60;99.90;;;;;;5038604;28;20501;-49
2022/12/30 02:44:36;;;;;;;9.97;9.30;;;8.60;99.90;;;;;;5043596;28;20467;-51
2022/12/30 02:46:10;;;;;;;9.97;9.17;;;8.60;99.90;;;;;;5042876;28;21008;-53
2022/12/30 02:48:40;;;;;;;9.53;8.93;;;8.70;99.90;;;;;;5041212;28;20982;-53
2022/12/30 02:53:51;;;;;;;9.43;8.93;;;8.70;99.90;;;;;;5042561;28;20494;-50
2022/12/30 02:56:17;;;;;;;9.47;8.87;;;8.70;99.90;;;;;;5043733;28;20499;-53
2022/12/30 03:03:56;;;;;;;9.83;9.33;;;8.60;99.90;;;;;;5041749;28;20195;-51
2022/12/30 03:04:44;;;;;;;9.30;8.80;;;8.60;99.90;;;;;;5042234;28;20445;-52
2022/12/30 03:07:16;;;;;;;9.50;9.00;;;8.60;99.90;;;;;;5042111;28;20452;-48
2022/12/30 03:13:15;;;;;;;9.00;8.60;;;8.50;99.90;;;;;;5043299;28;20403;-49
2022/12/30 03:15:47;;;;;;;10.33;9.50;;;8.60;99.90;;;;;;5042733;28;20831;-53
2022/12/30 03:18:13;;;;;;;9.57;8.97;;;8.70;99.90;;;;;;5042368;28;20454;-49
2022/12/30 03:20:41;;;;;;;9.73;8.90;;;8.70;99.90;;;;;;5042775;28;20444;-51
2022/12/30 03:28:44;;;;;;;10.00;9.20;;;8.70;99.90;;;;;;5041985;28;20443;-55
2022/12/30 03:31:13;;;;;;;9.57;8.97;;;8.70;99.90;;;;;;5042739;28;20474;-56
2022/12/30 03:33:40;;;;;;;9.87;9.20;;;8.60;99.90;;;;;;5042591;28;20451;-53
2022/12/30 03:36:17;;;;;;;9.20;8.60;;;8.70;99.90;;;;;;5041762;28;20522;-56
2022/12/30 03:38:49;;;;;;;9.77;9.27;;;8.70;99.90;;;;;;5036259;28;20446;-55
2022/12/30 03:41:16;;;;;;;9.70;9.10;;;8.80;99.90;;;;;;5042325;28;20485;-55
2022/12/30 03:43:43;;;;;;;9.80;9.30;;;8.80;99.90;;;;;;5041992;28;20493;-56
2022/12/30 03:46:09;;;;;;;9.60;9.10;;;8.70;99.90;;;;;;5042036;28;20526;-54
2022/12/30 03:48:34;;;;;;;8.67;8.27;;;8.80;99.90;;;;;;5039941;28;20527;-55
2022/12/30 03:51:00;;;;;;;8.90;8.33;;;8.80;99.90;;;;;;5040675;28;20515;-55
2022/12/30 03:53:25;;;;;;;9.63;9.13;;;8.70;99.90;;;;;;5042333;28;20288;-54
2022/12/30 03:55:52;;;;;;;9.90;9.37;;;8.70;99.90;;;;;;5042046;28;20194;-53
2022/12/30 03:58:17;;;;;;;8.87;8.37;;;8.70;99.90;;;;;;5041384;28;20181;-53
2022/12/30 04:00:43;;;;;;;9.33;8.53;;;8.70;99.90;;;;;;5041294;28;20877;-56
2022/12/30 04:03:08;;;;;;;9.30;8.80;;;8.60;99.90;;;;;;5042054;28;20189;-53
2022/12/30 04:05:34;;;;;;;9.90;9.20;;;8.60;99.90;;;;;;5042009;28;20528;-54
2022/12/30 04:08:00;;;;;;;8.27;7.77;;;8.50;99.90;;;;;;5041356;28;20225;-52
2022/12/30 04:10:26;;;;;;;9.53;8.80;;;8.50;99.90;;;;;;5040606;28;20435;-53
2022/12/30 04:12:51;;;;;;;9.83;9.23;;;8.40;99.90;;;;;;5040856;28;20209;-55
2022/12/30 04:15:17;;;;;;;9.13;8.33;;;8.40;99.90;;;;;;5041731;28;20277;-52
2022/12/30 04:17:42;;;;;;;8.97;8.30;;;8.30;99.90;;;;;;5041322;28;21086;-54
2022/12/30 04:20:08;;;;;;;8.93;8.43;;;8.30;99.90;;;;;;5041514;28;20201;-54
2022/12/30 04:22:34;;;;;;;10.03;9.43;;;8.30;99.90;;;;;;5040457;28;20198;-55
2022/12/30 04:25:00;;;;;;;9.00;8.50;;;8.20;99.90;;;;;;5042000;28;21247;-51
2022/12/30 04:27:25;;;;;;;9.17;8.60;;;8.30;99.90;;;;;;5039870;28;20213;-56
2022/12/30 04:29:51;;;;;;;8.80;8.30;;;8.30;99.90;;;;;;5040347;28;20240;-56
2022/12/30 04:32:16;;;;;;;9.10;8.60;;;8.40;99.90;;;;;;5040448;28;20205;-53
2022/12/30 04:34:42;;;;;;;9.00;8.40;;;8.40;99.90;;;;;;5041117;28;20327;-54
2022/12/30 04:37:07;;;;;;;9.10;8.40;;;8.50;99.90;;;;;;5040194;28;20197;-55
2022/12/30 04:39:33;;;;;;;8.50;8.00;;;8.60;99.90;;;;;;5040225;28;20212;-53
2022/12/30 04:41:59;;;;;;;8.70;8.20;;;8.70;99.90;;;;;;5041792;28;20266;-53
2022/12/30 04:44:24;;;;;;;8.50;8.00;;;8.70;99.90;;;;;;5040707;28;20194;-57
2022/12/30 04:46:50;;;;;;;9.10;8.40;;;8.80;99.90;;;;;;5040724;28;20296;-53
2022/12/30 04:49:15;;;;;;;8.50;8.10;;;8.90;99.90;;;;;;5041011;28;20219;-53
2022/12/30 04:51:41;;;;;;;8.70;8.07;;;8.90;99.90;;;;;;5040181;28;20705;-55
2022/12/30 04:54:06;;;;;;;8.53;8.00;;;8.90;99.90;;;;;;5041320;28;20182;-56
2022/12/30 04:56:32;;;;;;;8.50;7.90;;;8.90;99.90;;;;;;5040606;28;20193;-54
2022/12/30 04:58:58;;;;;;;8.47;7.73;;;9.00;99.90;;;;;;5040097;28;20198;-53
2022/12/30 05:01:23;;;;;;;8.97;8.17;;;9.00;99.90;;;;;;5039659;28;20197;-54
2022/12/30 05:03:49;;;;;;;8.67;8.27;;;9.10;99.90;;;;;;5040659;28;20205;-54
2022/12/30 05:06:14;;;;;;;8.43;7.83;;;9.10;99.90;;;;;;5041212;28;20263;-54
2022/12/30 05:08:40;;;;;;;9.10;8.60;;;9.10;99.90;;;;;;5039081;28;20193;-54
2022/12/30 05:11:06;;;;;;;9.70;9.10;;;9.10;99.90;;;;;;5040217;28;20194;-53
2022/12/30 05:13:31;;;;;;;9.07;8.50;;;9.10;99.90;;;;;;5039194;28;20251;-53
2022/12/30 05:15:57;;;;;;;9.10;8.50;;;9.10;99.90;;;;;;5040411;28;20611;-54
2022/12/30 05:18:22;;;;;;;10.30;9.40;;;9.10;99.90;;;;;;5039434;28;20182;-55
2022/12/30 05:20:48;;;;;;;10.00;9.03;;;9.10;99.90;;;;;;5040032;28;20194;-54
2022/12/30 05:26:16;;;;;;;8.97;8.47;;;9.00;99.90;;;;;;5040963;28;20343;-51
2022/12/30 05:28:47;;;;;;;9.23;8.57;;;9.00;99.90;;;;;;5040113;28;20898;-52
2022/12/30 05:31:14;;;;;;;9.20;8.60;;;8.90;99.90;;;;;;5040142;28;20447;-55
2022/12/30 05:33:40;;;;;;;9.20;8.57;;;9.00;99.90;;;;;;5032182;28;20472;-56
2022/12/30 05:36:07;;;;;;;8.10;7.70;;;8.90;99.90;;;;;;5040017;28;20428;-53
2022/12/30 05:38:33;;;;;;;9.43;8.73;;;9.00;99.90;;;;;;5038756;28;20498;-53
2022/12/30 05:41:00;;;;;;;9.33;8.83;;;9.00;99.90;;;;;;5040137;28;20442;-51
2022/12/30 05:43:25;;;;;;;8.57;7.97;;;9.00;99.90;;;;;;5039699;28;20535;-55
2022/12/30 05:45:51;;;;;;;9.17;8.57;;;9.10;99.90;;;;;;5039776;28;20429;-56
2022/12/30 05:48:17;;;;;;;9.50;8.90;;;9.10;99.90;;;;;;5039287;28;20193;-53
2022/12/30 05:50:46;;;;;;;9.40;8.70;;;9.00;99.90;;;;;;5040371;28;20193;-55
2022/12/30 05:53:12;;;;;;;9.27;8.37;;;9.00;99.90;;;;;;5039275;28;20193;-55
2022/12/30 05:55:37;;;;;;;8.80;8.30;;;8.90;99.90;;;;;;5039005;28;20440;-55
2022/12/30 05:58:03;;;;;;;8.33;7.93;;;8.90;99.90;;;;;;5039815;28;20190;-56
2022/12/30 06:00:29;;;;;;;9.53;8.97;;;8.90;99.90;;;;;;5037648;28;20194;-55
2022/12/30 06:02:55;;;;;;;9.23;8.60;;;8.90;99.90;;;;;;5038902;28;21270;-54
2022/12/30 06:05:20;;;;;;;9.33;8.60;;;8.70;99.90;;;;;;5038640;28;20665;-54
2022/12/30 06:07:46;;;;;;;9.17;8.47;;;8.60;99.90;;;;;;5039121;28;20478;-53
2022/12/30 06:10:11;;;;;;;9.73;8.90;;;8.60;99.90;;;;;;5039791;28;20190;-52
2022/12/30 06:12:37;;;;;;;9.20;8.70;;;8.50;99.90;;;;;;5038222;28;20214;-57
2022/12/30 06:15:03;;;;;;;9.17;8.50;;;8.50;99.90;;;;;;5039882;28;20262;-53
2022/12/30 06:17:29;;;;;;;8.40;7.80;;;8.40;99.90;;;;;;5039441;28;20718;-53
2022/12/30 06:19:54;;;;;;;8.70;8.10;;;8.40;99.90;;;;;;5038919;28;20517;-48
2022/12/30 06:22:20;;;;;;;9.20;8.40;;;8.40;99.90;;;;;;5039083;28;20205;-51
2022/12/30 06:24:45;;;;;;;8.63;8.23;;;8.40;99.90;;;;;;5038613;28;20219;-51
2022/12/30 06:27:11;;;;;;;8.93;8.33;;;8.40;99.90;;;;;;5038491;28;20291;-50
2022/12/30 06:29:37;;;;;;;8.50;8.00;;;8.40;99.90;;;;;;5039583;28;20563;-50
2022/12/30 06:32:02;;;;;;;8.97;8.33;;;8.40;99.90;;;;;;5037960;28;20177;-48
2022/12/30 06:34:28;;;;;;;9.20;8.60;;;8.30;99.90;;;;;;5038087;28;20269;-50
2022/12/30 06:36:54;;;;;;;9.50;8.60;;;8.30;99.90;;;;;;5039334;28;20216;-50
2022/12/30 06:39:20;;;;;;;8.53;8.03;;;8.30;99.90;;;;;;5039752;28;20197;-52
2022/12/30 06:41:45;;;;;;;8.80;8.10;;;8.30;99.90;;;;;;5038550;28;20960;-55
2022/12/30 06:44:11;;;;;;;9.03;7.67;;;8.10;99.90;;;;;;5038521;28;20197;-51
2022/12/30 06:46:36;;;;;;;9.60;9.00;;;8.00;99.90;;;;;;5039138;28;20706;-49
2022/12/30 06:49:02;;;;;;;10.60;9.90;;;8.00;99.90;;;;;;5038823;28;20226;-50
2022/12/30 06:51:28;;;;;;;9.60;9.00;;;7.80;99.90;;;;;;5038640;28;20189;-55
2022/12/30 06:53:54;;;;;;;9.70;9.00;;;7.60;99.90;;;;;;5038437;28;20219;-52
2022/12/30 06:56:19;;;;;;;8.40;8.00;;;7.60;99.90;;;;;;5038689;28;20438;-52
2022/12/30 06:58:45;;;;;;;10.03;9.10;;;7.50;99.90;;;;;;5038960;28;20195;-50
2022/12/30 07:01:11;;;;;;;9.07;8.47;;;7.40;99.90;;;;;;5037936;28;20186;-51
2022/12/30 07:03:36;;;;;;;9.53;9.03;;;7.40;99.90;;;;;;5038407;28;20204;-53
2022/12/30 07:06:02;;;;;;;9.13;8.50;;;7.30;99.90;;;;;;5038806;28;20195;-53
2022/12/30 07:08:27;;;;;;;9.30;8.60;;;7.30;99.90;;;;;;5037848;28;20632;-49
2022/12/30 07:10:54;;;;;;;9.57;9.17;;;7.20;99.90;;;;;;5037755;28;20203;-51
2022/12/30 07:13:20;;;;;;;10.53;9.73;;;7.10;99.90;;;;;;5037636;28;20177;-48
2022/12/30 07:15:47;;;;;;;9.60;9.10;;;7.10;99.90;;;;;;5038028;28;20443;-54
2022/12/30 07:18:12;;;;;;;9.70;9.20;;;7.20;99.90;;;;;;5037262;28;20504;-49
2022/12/30 07:20:38;;;;;;;9.13;8.43;;;7.20;99.90;;;;;;5038256;28;20925;-49
2022/12/30 07:23:05;;;;;;;10.63;9.60;;;7.20;99.90;;;;;;5036627;28;20666;-49
2022/12/30 07:25:31;;;;;;;9.73;9.03;;;7.20;99.90;;;;;;5041219;28;20230;-52
2022/12/30 07:28:01;;;;;;;9.60;9.00;;;7.20;99.90;;;;;;5043247;28;21009;-52
2022/12/30 07:30:28;;;;;;;9.60;9.10;;;7.30;99.90;;;;;;5042696;28;20223;-52
2022/12/30 07:32:53;;;;;;;9.53;8.70;;;7.30;99.90;;;;;;5040208;28;20450;-48
2022/12/30 07:35:19;;;;;;;8.73;8.30;;;7.40;99.90;;;;;;5042427;28;20451;-49
2022/12/30 07:37:45;;;;;;;9.10;8.50;;;7.40;99.90;;;;;;5042968;28;20192;-50
2022/12/30 07:40:10;;;;;;;8.57;8.10;;;7.50;99.90;;;;;;5040650;28;20200;-49
2022/12/30 07:42:36;;;;;;;9.07;8.40;;;7.40;99.90;;;;;;5041698;28;20193;-49
2022/12/30 07:45:02;;;;;;;9.30;8.70;;;7.40;99.90;;;;;;5041617;28;21139;-47
2022/12/30 07:47:32;;;;;;;8.27;7.67;;;7.30;99.90;;;;;;5042608;28;20967;-49
2022/12/30 07:50:01;;;;;;;8.80;8.00;;;7.20;99.90;;;;;;5042667;28;20193;-49
2022/12/30 07:52:27;;;;;;;9.60;8.80;;;7.20;99.90;;;;;;5041770;28;20941;-51
2022/12/30 07:54:53;;;;;;;9.97;9.27;;;7.20;99.90;;;;;;5041297;28;20440;-52
2022/12/30 07:57:18;;;;;;;9.00;8.20;;;7.10;99.90;;;;;;5042763;28;20234;-53
2022/12/30 07:59:45;;;;;;;9.80;8.90;;;7.20;99.90;;;;;;5041810;28;20196;-51
2022/12/30 08:02:11;;;;;;;9.20;8.60;;;7.40;99.90;;;;;;5041599;28;20238;-51
2022/12/30 08:04:36;;;;;;;9.40;8.90;;;7.40;99.90;;;;;;5042142;28;20435;-50
2022/12/30 08:07:02;;;;;;;10.57;9.87;;;7.40;99.90;;;;;;5041797;28;20221;-49
2022/12/30 08:09:28;;;;;;;19.00;17.20;;;7.40;99.90;;;;;;5042863;28;20204;-51
2022/12/30 08:11:54;;;;;;;10.30;9.60;;;7.60;99.90;;;;;;5041638;28;20554;-48
2022/12/30 08:14:19;;;;;;;7.97;7.23;;;7.80;99.90;;;;;;5040955;28;20442;-48
2022/12/30 08:16:45;;;;;;;10.00;9.30;;;7.90;99.90;;;;;;5041933;28;20241;-48
2022/12/30 08:19:11;;;;;;;9.47;8.77;;;8.30;99.90;;;;;;5039922;28;20197;-49
2022/12/30 08:21:36;;;;;;;9.17;8.50;;;8.70;99.90;;;;;;5039519;28;20736;-52
2022/12/30 08:24:02;;;;;;;9.60;9.00;;;9.30;99.90;;;;;;5041771;28;20198;-49
2022/12/30 08:26:28;;;;;;;8.67;8.17;;;9.80;99.90;;;;;;5041183;28;20210;-49
2022/12/30 08:28:54;;;;;;;9.20;8.50;;;10.30;99.90;;;;;;5039774;28;20568;-51
2022/12/30 08:31:25;;;;;;;9.93;9.33;;;10.80;99.70;;;;;;5041681;28;20182;-51
2022/12/30 08:33:51;;;;;;;9.40;8.70;;;11.30;98.20;;;;;;5041157;28;20187;-52
2022/12/30 08:36:21;;;;;;;8.47;7.77;;;12.00;96.80;;;;;;5040781;28;20945;-49
2022/12/30 08:38:50;;;;;;;8.40;7.90;;;12.40;93.70;;;;;;5041417;28;21118;-50
2022/12/30 08:41:43;;;;;;;8.43;7.93;;;12.50;92.10;;;;;;5042213;28;21209;-47
2022/12/30 08:44:09;;;;;;;9.20;8.70;;;12.90;89.70;;;;;;5039701;28;20561;-49
2022/12/30 08:46:36;;;;;;;9.47;8.63;;;12.50;89.20;;;;;;5042031;28;20806;-48
2022/12/30 08:49:02;;;;;;;9.33;8.67;;;12.90;89.50;;;;;;5041057;28;20444;-53
2022/12/30 08:51:28;;;;;;;9.00;8.40;;;13.10;87.80;;;;;;5039868;28;20440;-50
2022/12/30 08:53:54;;;;;;;8.77;8.27;;;13.70;85.60;;;;;;5041761;28;20946;-50
2022/12/30 08:56:22;;;;;;;9.07;8.60;;;14.20;82.20;;;;;;5041629;28;20470;-54
2022/12/30 08:58:49;;;;;;;8.63;8.13;;;14.70;76.90;;;;;;5040796;28;20719;-50
2022/12/30 09:01:18;;;;;;;9.33;8.73;;;15.20;74.20;;;;;;5041796;28;20415;-56
2022/12/30 09:03:45;;;;;;;9.27;8.57;;;15.20;70.10;;;;;;5041665;28;20512;-54
2022/12/30 09:06:13;;;;;;;9.20;8.50;;;15.20;70.40;;;;;;5041397;28;20510;-55
2022/12/30 09:08:39;;;;;;;8.43;7.93;;;15.20;66.90;;;;;;5039613;28;20469;-50
2022/12/30 09:11:16;;;;;;;9.00;8.37;;;15.10;65.90;;;;;;5041565;28;20503;-52
2022/12/30 09:13:42;;;;;;;9.47;8.87;;;14.70;66.20;;;;;;5041471;28;20418;-51
2022/12/30 09:16:11;;;;;;;8.90;8.40;;;14.90;69.30;;;;;;5040792;28;20582;-53
2022/12/30 09:18:37;;;;;;;9.53;8.67;;;15.50;67.00;;;;;;5040390;28;20416;-52
2022/12/30 09:21:04;;;;;;;8.33;7.70;;;16.00;65.20;;;;;;5041490;28;20423;-53
2022/12/30 09:23:29;;;;;;;9.60;9.10;;;16.90;61.30;;;;;;5039379;28;20239;-51
2022/12/30 09:25:56;;;;;;;9.50;9.00;;;17.30;57.50;;;;;;5039879;28;20819;-50
2022/12/30 09:28:22;;;;;;;9.47;8.60;;;16.60;57.40;;;;;;5040042;28;20472;-48
2022/12/30 09:30:47;;;;;;;8.90;8.40;;;17.20;57.70;;;;;;5039604;28;20477;-50
2022/12/30 09:33:13;;;;;;;8.37;7.77;;;17.30;55.90;;;;;;5040072;28;20189;-49
2022/12/30 09:35:38;;;;;;;8.40;7.90;;;17.60;53.60;;;;;;5039809;28;20279;-49
2022/12/30 09:38:05;;;;;;;9.00;8.37;;;16.00;56.00;;;;;;5040169;28;20604;-49
2022/12/30 09:40:43;;;;;;;8.43;7.93;;;16.80;56.00;;;;;;5040783;28;20285;-49
2022/12/30 09:43:20;;;;;;;8.73;8.30;;;17.30;53.50;;;;;;5041003;28;20426;-53
2022/12/30 09:46:08;;;;;;;9.50;8.80;;;17.10;54.30;;;;;;5039871;28;20447;-52
2022/12/30 09:48:42;;;;;;;9.30;8.60;;;16.90;55.10;;;;;;5039943;28;20432;-52
2022/12/30 09:51:12;;;;;;;9.83;9.00;;;16.70;53.80;;;;;;5041067;28;20428;-52
2022/12/30 09:53:40;;;;;;;9.07;8.40;;;17.20;54.20;;;;;;5040796;28;20428;-52
2022/12/30 09:56:17;;;;;;;8.80;8.30;;;16.20;53.80;;;;;;5040037;28;20485;-51
2022/12/30 09:58:44;;;;;;;9.40;8.90;;;15.80;55.90;;;;;;5039934;28;21312;-51
2022/12/30 10:01:19;;;;;;;8.90;8.30;;;14.70;57.70;;;;;;5039320;28;20439;-49
2022/12/30 10:03:45;;;;;;;8.70;8.20;;;15.00;58.00;;;;;;5040417;28;20492;-48
2022/12/30 10:06:36;;;;;;;10.60;9.80;;;15.00;58.60;;;;;;5040541;28;20415;-51
2022/12/30 10:09:23;;;;;;;9.60;9.10;;;14.30;59.20;;;;;;5040782;28;20178;-49
2022/12/30 10:12:07;;;;;;;10.10;9.43;;;14.20;61.60;;;;;;5040164;28;21387;-52
2022/12/30 10:14:52;;;;;;;9.03;8.50;;;13.80;63.50;;;;;;5039061;28;20471;-50
2022/12/30 10:17:48;;;;;;;9.43;8.90;;;14.10;64.10;;;;;;5039712;28;20557;-49
2022/12/30 10:20:35;;;;;;;8.67;8.03;;;14.70;61.60;;;;;;5038777;28;20471;-50
2022/12/30 10:23:34;;;;;;;9.57;8.97;;;15.20;59.70;;;;;;5038879;28;20510;-52
2022/12/30 10:26:13;;;;;;;8.97;8.27;;;15.70;58.30;;;;;;5039064;28;20432;-52
2022/12/30 10:28:45;;;;;;;9.53;8.80;;;16.00;57.60;;;;;;5039179;28;20570;-51
2022/12/30 10:31:20;;;;;;;10.23;9.33;;;16.20;56.30;;;;;;5039284;28;20926;-49
2022/12/30 10:33:52;;;;;;;9.30;8.70;;;15.80;57.50;;;;;;5039902;28;20415;-51
2022/12/30 10:36:26;;;;;;;9.10;8.30;;;16.10;56.10;;;;;;5039982;28;20438;-50
2022/12/30 10:39:03;;;;;;;9.10;8.60;;;16.20;54.80;;;;;;5039921;28;20434;-48
2022/12/30 10:41:58;;;;;;;8.60;8.00;;;16.30;55.20;;;;;;5039792;28;20447;-52
2022/12/30 10:44:35;;;;;;;8.80;8.30;;;16.00;53.30;;;;;;5039858;28;20491;-54
2022/12/30 10:47:00;;;;;;;9.17;8.53;;;15.90;55.10;;;;;;5039269;28;20470;-55
2022/12/30 10:49:38;;;;;;;8.87;8.27;;;15.70;54.30;;;;;;5040286;28;20416;-52
2022/12/30 10:52:04;;;;;;;9.07;8.57;;;15.50;54.50;;;;;;5039328;28;20177;-50
2022/12/30 10:54:30;;;;;;;8.50;8.00;;;15.50;55.40;;;;;;5039514;28;20427;-49
2022/12/30 10:56:55;;;;;;;10.77;8.30;;;15.70;54.80;;;;;;5039986;28;20782;-51
2022/12/30 10:59:27;;;;;;;9.27;8.77;;;15.50;53.90;;;;;;5040913;28;20186;-50
2022/12/30 11:02:00;;;;;;;9.00;8.50;;;16.00;54.30;;;;;;5043874;28;20299;-48
2022/12/30 11:04:38;;;;;;;8.70;8.10;;;16.30;53.10;;;;;;5043620;28;20500;-54
2022/12/30 11:07:13;;;;;;;8.93;8.17;;;16.90;51.80;;;;;;5043094;28;20961;-49
2022/12/30 11:09:39;;;;;;;8.60;8.10;;;17.10;51.90;;;;;;5043789;28;20411;-50
2022/12/30 11:15:11;;;;;;;9.63;9.13;;;16.80;50.00;;;;;;5043298;28;20771;-57
2022/12/30 11:17:46;;;;;;;9.20;8.70;;;16.60;51.20;;;;;;5043212;28;20514;-58
2022/12/30 11:20:13;;;;;;;9.10;8.60;;;16.50;50.40;;;;;;5043130;28;20408;-58
2022/12/30 11:22:53;;;;;;;9.67;8.73;;;16.30;51.10;;;;;;5043405;28;20432;-54
2022/12/30 11:25:49;;;;;;;8.67;8.07;;;16.10;50.80;;;;;;5043445;28;20442;-57
2022/12/30 11:28:51;;;;;;;9.23;8.60;;;15.90;52.00;;;;;;5042422;28;20573;-54
2022/12/30 11:31:18;;;;;;;9.23;8.83;;;15.30;53.40;;;;;;5043228;28;20426;-55
2022/12/30 11:33:52;;;;;;;9.37;8.53;;;15.00;53.00;;;;;;5042826;28;21332;-57
2022/12/30 11:36:30;;;;;;;8.80;8.20;;;14.90;53.60;;;;;;5043245;28;20489;-57
2022/12/30 11:39:22;;;;;;;8.10;7.70;;;15.60;53.50;;;;;;5041786;28;20478;-57
2022/12/30 11:41:52;;;;;;;8.67;8.17;;;16.50;51.60;;;;;;5029548;28;20525;-58
2022/12/30 11:44:28;;;;;;;9.13;8.57;;;16.20;49.90;;;;;;5043054;28;20409;-59
2022/12/30 11:46:56;;;;;;;8.73;8.33;;;16.60;49.80;;;;;;5042830;28;20467;-58
2022/12/30 11:49:32;;;;;;;9.27;8.77;;;16.40;48.70;;;;;;5042413;28;20420;-57
2022/12/30 11:52:10;;;;;;;9.00;8.50;;;16.30;48.30;;;;;;5041432;28;20948;-56
2022/12/30 11:54:44;;;;;;;8.07;7.67;;;15.60;49.70;;;;;;5042535;28;20430;-58
2022/12/30 11:57:27;;;;;;;8.37;7.87;;;16.20;49.90;;;;;;5042481;28;20812;-57
2022/12/30 11:59:55;;;;;;;9.00;8.60;;;16.70;48.50;;;;;;5042559;28;20451;-55
2022/12/30 12:02:33;;;;;;;9.17;8.57;;;16.50;48.30;;;;;;5042766;28;20489;-58
2022/12/30 12:04:59;;;;;;;8.73;8.30;;;17.00;49.00;;;;;;5042147;28;20547;-58
2022/12/30 12:07:35;;;;;;;8.33;7.70;;;16.80;47.80;;;;;;5041811;28;21342;-58
2022/12/30 12:10:22;;;;;;;9.20;8.50;;;16.90;48.50;;;;;;5041731;28;20818;-57
2022/12/30 12:12:55;;;;;;;9.63;8.90;;;16.10;48.50;;;;;;5042365;28;20412;-53
2022/12/30 12:15:30;;;;;;;9.60;9.00;;;15.50;51.10;;;;;;5040649;28;20996;-56
2022/12/30 12:18:12;;;;;;;9.20;8.80;;;14.70;52.20;;;;;;5040818;28;20485;-58
2022/12/30 12:21:15;;;;;;;9.20;8.60;;;14.40;54.40;;;;;;5041545;28;20439;-58
2022/12/30 12:23:53;;;;;;;9.80;9.07;;;14.80;55.10;;;;;;5041530;28;20449;-58
2022/12/30 12:26:23;;;;;;;10.40;9.60;;;14.30;55.30;;;;;;5038479;28;21649;-59
2022/12/30 12:28:52;;;;;;;9.50;8.90;;;14.50;56.10;;;;;;5039113;28;20952;-59
2022/12/30 12:31:27;;;;;;;10.00;9.20;;;14.80;55.90;;;;;;5041496;28;20432;-57
2022/12/30 12:33:57;;;;;;;9.80;9.10;;;15.10;55.50;;;;;;5041043;28;20558;-57
2022/12/30 12:36:44;;;;;;;10.10;9.60;;;14.90;54.40;;;;;;5040300;28;20446;-58
2022/12/30 12:39:14;;;;;;;9.80;9.00;;;15.00;55.30;;;;;;5040656;28;20850;-51
2022/12/30 12:41:44;;;;;;;10.77;10.07;;;15.60;55.90;;;;;;5039948;28;20444;-54
2022/12/30 12:44:30;;;;;;;10.30;9.70;;;15.50;54.90;;;;;;5041045;28;20543;-52
2022/12/30 12:46:59;;;;;;;9.97;8.97;;;16.00;54.60;;;;;;5040300;28;20533;-58
2022/12/30 12:49:36;;;;;;;10.07;9.47;;;16.00;53.60;;;;;;5040361;28;21279;-59
2022/12/30 12:52:25;;;;;;;9.73;9.13;;;15.90;53.40;;;;;;5039229;28;20444;-56
2022/12/30 12:55:33;;;;;;;11.57;10.83;;;15.80;54.20;;;;;;5039818;28;20440;-58
2022/12/30 12:58:16;;;;;;;10.40;9.70;;;15.20;54.70;;;;;;5041645;28;20435;-56
2022/12/30 13:00:57;;;;;;;10.37;9.67;;;15.50;55.80;;;;;;5041457;28;21398;-55
2022/12/30 13:03:47;;;;;;;10.93;10.17;;;15.50;55.80;;;;;;5040981;28;20440;-57
2022/12/30 13:06:28;;;;;;;11.40;10.33;;;15.00;56.00;;;;;;5041112;28;20431;-58
2022/12/30 13:08:56;;;;;;;13.70;12.77;;;15.00;57.10;;;;;;5041304;28;20807;-49
2022/12/30 13:11:28;;;;;;;14.93;14.03;;;14.70;57.00;;;;;;5041505;28;20969;-50
2022/12/30 13:14:20;;;;;;;15.27;14.30;;;14.50;58.20;;;;;;5039939;28;20893;-50
2022/12/30 13:16:50;;;;;;;15.77;14.40;;;13.50;59.70;;;;;;5039669;28;20467;-53
2022/12/30 13:19:19;;;;;;;14.97;13.90;;;12.80;63.90;;;;;;5040270;28;20940;-51
2022/12/30 13:21:50;;;;;;;14.20;13.10;;;12.20;68.60;;;;;;5039159;28;20431;-51
2022/12/30 13:24:49;;;;;;;14.97;13.87;;;12.40;71.00;;;;;;5039887;28;20461;-49
2022/12/30 13:27:35;;;;;;;13.83;12.83;;;12.30;72.90;;;;;;5028324;28;20510;-52
2022/12/30 13:30:02;;;;;;;12.87;11.97;;;12.10;74.90;;;;;;5040636;28;20506;-50
2022/12/30 13:32:52;;;;;;;12.20;11.50;;;11.90;76.70;;;;;;5041049;28;21111;-48
2022/12/30 13:35:45;;;;;;;12.03;11.17;;;11.90;77.90;;;;;;5040834;28;20432;-57
2022/12/30 13:38:16;;;;;;;12.07;11.37;;;11.80;78.30;;;;;;5041227;28;20511;-51
2022/12/30 13:41:17;;;;;;;11.30;10.50;;;11.60;79.10;;;;;;5041139;28;20428;-53
2022/12/30 13:43:46;;;;;;;10.20;9.50;;;11.60;80.20;;;;;;5040669;28;20431;-48
2022/12/30 13:46:20;;;;;;;10.73;10.13;;;11.60;81.10;;;;;;5040024;28;20532;-51
2022/12/30 13:49:27;;;;;;;11.43;10.60;;;11.60;81.20;;;;;;5036361;28;20934;-47
2022/12/30 13:51:58;;;;;;;11.77;11.07;;;12.00;81.70;;;;;;5037632;28;20432;-51
2022/12/30 13:54:25;;;;;;;11.73;11.03;;;12.10;81.00;;;;;;5040859;28;20502;-50
2022/12/30 13:56:52;;;;;;;11.60;10.80;;;11.90;79.60;;;;;;5040899;28;20527;-48
2022/12/30 13:59:29;;;;;;;11.60;10.80;;;11.90;80.30;;;;;;5040539;28;20432;-49
2022/12/30 14:02:21;;;;;;;10.73;10.00;;;11.70;82.30;;;;;;5040133;28;20462;-50
2022/12/30 14:04:56;;;;;;;11.00;10.30;;;11.20;82.50;;;;;;5040334;28;20432;-53